Time;durP1;ratioP1;P1;durP2;ratioP2;P2;SDS_P1;SDS_P2;PMS_P1;PMS_P2;Temp;Humidity;BMP_temperature;BMP_pressure;BME280_temperature;BME280_humidity;BME280_pressure;Samples;Min_cycle;Max_cycle;Signal;HPM_P1;HPM_P2
2023/06/12 00:01:05;;;;;;;4.32;3.08;;;24.90;64.50;;;;;;4182261;28;20057;-60
2023/06/12 00:03:06;;;;;;;4.43;3.58;;;24.90;64.50;;;;;;4183050;28;20048;-60
2023/06/12 00:05:08;;;;;;;4.55;3.00;;;24.70;64.80;;;;;;4192601;28;20407;-59
2023/06/12 00:07:09;;;;;;;5.05;3.33;;;24.70;65.00;;;;;;4192860;28;20033;-60
2023/06/12 00:09:10;;;;;;;4.20;3.20;;;24.60;65.00;;;;;;4193189;28;20484;-60
2023/06/12 00:11:12;;;;;;;4.75;3.63;;;24.50;65.50;;;;;;4179830;28;20045;-60
2023/06/12 00:13:13;;;;;;;4.80;3.53;;;24.30;65.40;;;;;;4191937;28;20064;-60
2023/06/12 00:15:14;;;;;;;7.18;4.05;;;24.00;65.20;;;;;;4179476;28;20129;-60
2023/06/12 00:17:14;;;;;;;5.35;3.53;;;23.70;65.70;;;;;;4169270;28;20389;-60
2023/06/12 00:19:15;;;;;;;5.72;3.65;;;23.50;66.40;;;;;;4179549;28;20040;-60
2023/06/12 00:21:16;;;;;;;5.53;3.85;;;23.30;67.20;;;;;;4192018;28;20046;-60
2023/06/12 00:23:17;;;;;;;5.68;3.42;;;23.10;67.50;;;;;;4177591;28;20041;-59
2023/06/12 00:25:18;;;;;;;6.43;3.90;;;23.00;67.90;;;;;;4175738;28;20067;-60
2023/06/12 00:27:18;;;;;;;4.78;3.58;;;22.90;68.70;;;;;;4171748;28;20040;-60
2023/06/12 00:29:19;;;;;;;4.82;3.42;;;22.80;69.00;;;;;;4160682;28;20038;-60
2023/06/12 00:31:19;;;;;;;4.80;3.22;;;22.70;69.00;;;;;;4183615;28;20037;-60
2023/06/12 00:33:20;;;;;;;3.78;3.17;;;22.70;69.10;;;;;;4164561;28;20476;-60
2023/06/12 00:35:21;;;;;;;5.25;3.28;;;22.70;69.50;;;;;;4182054;28;20055;-59
2023/06/12 00:37:24;;;;;;;3.95;3.35;;;22.60;69.30;;;;;;4186045;28;20032;-60
2023/06/12 00:39:25;;;;;;;5.95;4.18;;;22.60;69.30;;;;;;4176180;28;20029;-59
2023/06/12 00:41:25;;;;;;;4.97;3.60;;;22.50;69.40;;;;;;4177546;28;20033;-60
2023/06/12 00:43:26;;;;;;;5.20;3.60;;;22.40;69.30;;;;;;4184537;28;20087;-60
2023/06/12 00:45:26;;;;;;;5.43;3.72;;;22.40;69.30;;;;;;4183994;28;20029;-59
2023/06/12 00:47:27;;;;;;;5.78;3.70;;;22.50;69.40;;;;;;4178145;28;20043;-60
2023/06/12 00:49:28;;;;;;;4.47;3.65;;;22.40;69.20;;;;;;4192555;28;20115;-61
2023/06/12 00:51:29;;;;;;;4.78;3.47;;;22.50;69.30;;;;;;4190711;28;20033;-60
2023/06/12 00:53:29;;;;;;;4.60;3.20;;;22.50;69.60;;;;;;4183987;28;20391;-60
2023/06/12 00:55:34;;;;;;;4.72;3.33;;;22.60;71.00;;;;;;4182857;28;20040;-62
2023/06/12 00:57:37;;;;;;;7.05;3.40;;;22.60;70.20;;;;;;4160749;28;20037;-60
2023/06/12 00:59:37;;;;;;;5.57;3.60;;;22.70;70.10;;;;;;4192865;28;20029;-60
2023/06/12 01:01:38;;;;;;;5.60;3.53;;;22.80;70.40;;;;;;4175266;28;20134;-59
2023/06/12 01:03:39;;;;;;;5.88;3.83;;;22.80;69.80;;;;;;4170529;28;20053;-60
2023/06/12 01:05:43;;;;;;;5.35;3.95;;;22.90;69.20;;;;;;4191642;28;20036;-60
2023/06/12 01:07:51;;;;;;;4.68;3.60;;;22.90;68.60;;;;;;4189934;28;20114;-59
2023/06/12 01:10:24;;;;;;;4.90;3.67;;;22.90;68.60;;;;;;4191698;28;20024;-60
2023/06/12 01:12:25;;;;;;;5.40;3.40;;;22.90;68.60;;;;;;4190565;28;20406;-59
2023/06/12 01:14:26;;;;;;;4.63;3.40;;;22.90;68.70;;;;;;4177440;28;20063;-59
2023/06/12 01:16:27;;;;;;;5.95;3.80;;;22.90;68.70;;;;;;4183992;28;20033;-60
2023/06/12 01:18:29;;;;;;;5.22;3.90;;;22.90;68.90;;;;;;4176153;28;20033;-59
2023/06/12 01:20:30;;;;;;;5.70;3.60;;;22.90;69.10;;;;;;4183612;28;20037;-60
2023/06/12 01:22:36;;;;;;;4.72;3.58;;;22.80;69.80;;;;;;4183643;28;20364;-63
2023/06/12 01:24:53;;;;;;;4.18;3.35;;;22.90;68.60;;;;;;4182871;28;20033;-60
2023/06/12 01:27:23;;;;;;;5.90;4.00;;;22.90;69.80;;;;;;4190273;28;20029;-60
2023/06/12 01:29:32;;;;;;;4.93;3.28;;;22.90;69.40;;;;;;4159363;28;20038;-60
2023/06/12 01:32:02;;;;;;;6.80;4.00;;;23.00;69.60;;;;;;4172153;28;20041;-59
2023/06/12 01:34:13;;;;;;;6.80;4.00;;;23.00;69.30;;;;;;4189674;28;20040;-59
2023/06/12 01:36:15;;;;;;;6.63;3.70;;;23.00;69.30;;;;;;4179092;28;20427;-60
2023/06/12 01:38:20;;;;;;;;;;;23.00;69.60;;;;;;4182463;28;20066;-59
2023/06/12 01:40:23;;;;;;;4.45;3.63;;;23.00;70.40;;;;;;4175196;28;19924;-60
2023/06/12 01:42:26;;;;;;;5.53;4.07;;;23.10;70.30;;;;;;4176994;28;20033;-60
2023/06/12 01:44:26;;;;;;;4.57;3.58;;;23.00;71.90;;;;;;4176265;28;20480;-60
2023/06/12 01:46:27;;;;;;;4.65;3.40;;;23.00;71.50;;;;;;4184829;28;20040;-59
2023/06/12 01:48:27;;;;;;;5.65;3.63;;;23.00;70.40;;;;;;4191335;28;20032;-60
2023/06/12 01:50:28;;;;;;;5.13;3.50;;;23.00;69.80;;;;;;4184674;28;20059;-59
2023/06/12 01:52:29;;;;;;;4.50;3.60;;;23.00;69.50;;;;;;4190685;28;20028;-60
2023/06/12 01:54:33;;;;;;;5.28;3.15;;;23.00;71.40;;;;;;4184973;28;20032;-60
2023/06/12 01:56:33;;;;;;;4.53;3.55;;;23.00;72.50;;;;;;4177150;28;20033;-60
2023/06/12 01:58:34;;;;;;;5.20;3.60;;;23.00;72.50;;;;;;4181166;28;20124;-60
2023/06/12 02:00:37;;;;;;;4.72;3.40;;;23.00;72.70;;;;;;4177290;28;20029;-60
2023/06/12 02:02:39;;;;;;;5.38;3.60;;;23.00;72.50;;;;;;4192080;28;20475;-59
2023/06/12 02:04:40;;;;;;;4.17;3.40;;;22.90;71.70;;;;;;4179796;28;20137;-59
2023/06/12 02:06:40;;;;;;;5.72;3.78;;;22.90;72.80;;;;;;4177419;28;20037;-59
2023/06/12 02:08:42;;;;;;;5.32;3.60;;;22.80;72.00;;;;;;4185521;28;20057;-60
2023/06/12 02:10:43;;;;;;;5.93;3.85;;;22.80;72.20;;;;;;4183814;28;20040;-60
2023/06/12 02:12:43;;;;;;;4.65;3.40;;;22.80;72.40;;;;;;4178624;28;20392;-60
2023/06/12 02:14:44;;;;;;;5.65;3.38;;;22.80;72.10;;;;;;4173296;28;20064;-60
2023/06/12 02:16:47;;;;;;;6.28;4.10;;;22.80;72.70;;;;;;4173075;28;20033;-59
2023/06/12 02:18:48;;;;;;;5.00;3.40;;;22.70;73.40;;;;;;4186548;28;20032;-59
2023/06/12 02:20:49;;;;;;;4.75;3.60;;;22.70;74.30;;;;;;4187039;28;20424;-59
2023/06/12 02:22:49;;;;;;;4.82;3.40;;;22.60;72.90;;;;;;4193837;28;20395;-59
2023/06/12 02:24:50;;;;;;;5.80;3.50;;;22.60;75.50;;;;;;4184187;28;20052;-60
2023/06/12 02:26:50;;;;;;;5.63;3.65;;;22.60;73.30;;;;;;4171778;28;20380;-60
2023/06/12 02:29:12;;;;;;;4.95;3.47;;;22.60;73.70;;;;;;4181989;28;20771;-59
2023/06/12 02:31:13;;;;;;;5.40;3.55;;;22.50;73.10;;;;;;4173825;28;20112;-60
2023/06/12 02:33:14;;;;;;;5.60;3.38;;;22.60;72.80;;;;;;4188670;28;20040;-60
2023/06/12 02:35:15;;;;;;;5.28;3.80;;;22.50;72.40;;;;;;4184477;28;20056;-59
2023/06/12 02:37:16;;;;;;;5.10;3.60;;;22.50;72.10;;;;;;4189183;28;20404;-60
2023/06/12 02:39:17;;;;;;;4.28;3.47;;;22.50;72.40;;;;;;4190735;28;20036;-60
2023/06/12 02:41:17;;;;;;;6.97;3.88;;;22.50;74.20;;;;;;4176161;28;20116;-59
2023/06/12 02:43:18;;;;;;;5.63;3.92;;;22.40;75.00;;;;;;4183647;28;20086;-60
2023/06/12 02:45:22;;;;;;;5.15;3.42;;;22.40;76.10;;;;;;4188397;28;20118;-60
2023/06/12 02:47:22;;;;;;;6.70;3.78;;;22.30;76.30;;;;;;4175494;28;20047;-59
2023/06/12 02:49:25;;;;;;;4.97;3.30;;;22.30;75.50;;;;;;4186305;28;20036;-60
2023/06/12 02:51:26;;;;;;;4.47;3.42;;;22.30;74.20;;;;;;4167181;28;20045;-59
2023/06/12 02:53:26;;;;;;;4.35;3.55;;;22.20;73.70;;;;;;4191045;28;20048;-59
2023/06/12 02:55:27;;;;;;;7.63;4.30;;;22.20;73.70;;;;;;4184978;28;20061;-59
2023/06/12 02:57:27;;;;;;;5.57;3.85;;;22.20;74.10;;;;;;4180023;28;20108;-60
2023/06/12 02:59:28;;;;;;;5.20;3.58;;;22.20;74.00;;;;;;4188674;28;20037;-60
2023/06/12 03:01:30;;;;;;;4.85;4.00;;;22.10;74.20;;;;;;4183628;28;20144;-59
2023/06/12 03:03:30;;;;;;;5.03;3.50;;;22.10;73.90;;;;;;4186180;28;20044;-59
2023/06/12 03:05:31;;;;;;;9.38;3.88;;;22.00;73.80;;;;;;4180875;28;20037;-59
2023/06/12 03:07:36;;;;;;;6.45;4.07;;;22.00;74.10;;;;;;4187841;28;20103;-59
2023/06/12 03:09:38;;;;;;;6.72;4.45;;;21.90;75.00;;;;;;4194203;28;20025;-60
2023/06/12 03:11:39;;;;;;;4.65;3.60;;;21.90;74.30;;;;;;4179185;28;20036;-59
2023/06/12 03:13:40;;;;;;;5.50;3.78;;;21.80;75.00;;;;;;4173316;28;20479;-59
2023/06/12 03:15:40;;;;;;;5.40;3.80;;;21.80;76.60;;;;;;4190223;28;20029;-59
2023/06/12 03:17:41;;;;;;;5.07;3.50;;;21.80;75.90;;;;;;4176649;28;20094;-60
2023/06/12 03:19:44;;;;;;;5.20;3.95;;;21.80;75.40;;;;;;4179400;28;20033;-59
2023/06/12 03:21:45;;;;;;;6.22;3.70;;;21.70;75.40;;;;;;4180607;28;20037;-60
2023/06/12 03:23:45;;;;;;;5.03;3.75;;;21.70;75.10;;;;;;4193801;28;20044;-59
2023/06/12 03:25:47;;;;;;;5.45;3.95;;;21.70;76.90;;;;;;4191145;28;20064;-59
2023/06/12 03:27:49;;;;;;;8.10;4.40;;;21.70;76.70;;;;;;4177631;28;20103;-60
2023/06/12 03:29:50;;;;;;;6.03;4.13;;;21.60;77.40;;;;;;4180320;28;20638;-59
2023/06/12 03:31:53;;;;;;;5.50;3.83;;;21.60;76.60;;;;;;4182231;28;20498;-59
2023/06/12 03:33:54;;;;;;;5.65;3.92;;;21.50;77.40;;;;;;4181990;28;20032;-60
2023/06/12 03:35:55;;;;;;;5.18;3.60;;;21.50;77.90;;;;;;4191653;28;20422;-60
2023/06/12 03:37:56;;;;;;;5.10;3.83;;;21.50;77.70;;;;;;4170502;28;20125;-59
2023/06/12 03:39:56;;;;;;;6.82;3.85;;;21.50;78.50;;;;;;4189131;28;20036;-59
2023/06/12 03:41:57;;;;;;;4.72;3.30;;;21.50;77.70;;;;;;4178713;28;20033;-59
2023/06/12 03:43:58;;;;;;;5.15;3.67;;;21.40;78.10;;;;;;4176337;28;20500;-59
2023/06/12 03:45:59;;;;;;;5.18;3.90;;;21.40;78.20;;;;;;4164116;28;20044;-59
2023/06/12 03:47:59;;;;;;;5.97;4.05;;;21.40;78.60;;;;;;4175106;28;20395;-60
2023/06/12 03:50:01;;;;;;;4.30;3.28;;;21.40;78.50;;;;;;4173161;28;20095;-59
2023/06/12 03:52:01;;;;;;;5.90;3.85;;;21.40;78.90;;;;;;4187343;28;20032;-60
2023/06/12 03:54:02;;;;;;;6.55;4.28;;;21.40;78.80;;;;;;4193276;28;20476;-60
2023/06/12 03:56:03;;;;;;;8.13;3.90;;;21.30;80.30;;;;;;4192042;28;20106;-61
2023/06/12 03:58:03;;;;;;;4.97;3.60;;;21.30;79.30;;;;;;4179820;28;20037;-60
2023/06/12 04:00:05;;;;;;;4.82;3.45;;;21.30;80.10;;;;;;4177589;28;20118;-60
2023/06/12 04:02:05;;;;;;;6.32;4.18;;;21.30;79.80;;;;;;4182021;28;20053;-59
2023/06/12 04:04:06;;;;;;;7.07;3.95;;;21.30;79.90;;;;;;4178584;28;20479;-59
2023/06/12 04:06:07;;;;;;;5.40;3.95;;;21.30;80.30;;;;;;4191875;28;20503;-59
2023/06/12 04:08:07;;;;;;;4.75;3.42;;;21.30;80.60;;;;;;4170892;28;20393;-60
2023/06/12 04:10:08;;;;;;;5.30;3.55;;;21.30;80.20;;;;;;4190656;28;20040;-60
2023/06/12 04:12:09;;;;;;;4.03;3.30;;;21.20;80.50;;;;;;4174287;28;20075;-60
2023/06/12 04:14:10;;;;;;;7.10;3.60;;;21.30;80.70;;;;;;4175996;28;20037;-59
2023/06/12 04:16:11;;;;;;;5.70;3.78;;;21.20;80.80;;;;;;4183188;28;20052;-60
2023/06/12 04:18:12;;;;;;;4.82;3.70;;;21.20;81.00;;;;;;4175446;28;20040;-60
2023/06/12 04:20:13;;;;;;;5.45;4.05;;;21.20;81.70;;;;;;4176740;28;20060;-60
2023/06/12 04:22:15;;;;;;;5.47;3.53;;;21.20;82.20;;;;;;4177274;28;20052;-60
2023/06/12 04:24:15;;;;;;;4.72;3.80;;;21.20;81.90;;;;;;4173690;28;20049;-59
2023/06/12 04:26:16;;;;;;;7.15;3.80;;;21.30;82.70;;;;;;4167898;28;20037;-59
2023/06/12 04:28:17;;;;;;;4.85;3.53;;;21.30;82.40;;;;;;4171501;28;20048;-59
2023/06/12 04:30:21;;;;;;;6.57;4.13;;;21.30;83.00;;;;;;4188867;28;20036;-60
2023/06/12 04:32:23;;;;;;;4.95;3.60;;;21.30;82.80;;;;;;4190249;28;20037;-59
2023/06/12 04:34:24;;;;;;;6.45;3.67;;;21.30;82.90;;;;;;4182771;28;20041;-59
2023/06/12 04:36:25;;;;;;;5.32;3.90;;;21.30;83.20;;;;;;4176323;28;20510;-60
2023/06/12 04:38:27;;;;;;;5.65;4.03;;;21.40;83.10;;;;;;4177027;28;20391;-59
2023/06/12 04:40:27;;;;;;;5.85;4.13;;;21.30;83.30;;;;;;4184766;28;20131;-59
2023/06/12 04:42:28;;;;;;;6.97;4.00;;;21.40;83.30;;;;;;4192849;28;20025;-59
2023/06/12 04:44:30;;;;;;;7.15;4.35;;;21.40;82.50;;;;;;4173935;28;20183;-59
2023/06/12 04:46:32;;;;;;;7.80;3.88;;;21.30;82.70;;;;;;4175996;28;20079;-59
2023/06/12 04:48:32;;;;;;;7.75;4.50;;;21.30;82.40;;;;;;4171712;28;20377;-62
2023/06/12 04:50:33;;;;;;;5.53;3.55;;;21.40;82.70;;;;;;4176435;28;20099;-60
2023/06/12 04:52:34;;;;;;;5.07;3.78;;;21.40;82.40;;;;;;4191184;28;20032;-61
2023/06/12 04:54:41;;;;;;;6.63;3.88;;;21.40;82.30;;;;;;4176582;28;20083;-60
2023/06/12 04:56:44;;;;;;;7.93;4.93;;;21.40;82.60;;;;;;4176394;28;20062;-59
2023/06/12 04:58:45;;;;;;;6.90;4.07;;;21.40;82.80;;;;;;4180029;28;20361;-59
2023/06/12 05:00:47;;;;;;;6.75;4.35;;;21.40;83.10;;;;;;4189980;28;20043;-59
2023/06/12 05:02:49;;;;;;;6.15;3.95;;;21.40;83.80;;;;;;4189951;28;20053;-59
2023/06/12 05:04:50;;;;;;;8.77;4.73;;;21.50;84.50;;;;;;4181316;28;20472;-59
2023/06/12 05:06:51;;;;;;;5.30;4.28;;;21.50;85.30;;;;;;4176283;28;20033;-65
2023/06/12 05:08:52;;;;;;;6.15;3.97;;;21.50;86.30;;;;;;4170144;28;20041;-61
2023/06/12 05:10:53;;;;;;;9.65;5.40;;;21.50;85.40;;;;;;4165441;28;20044;-62
2023/06/12 05:12:53;;;;;;;9.18;5.40;;;21.30;84.40;;;;;;4193698;28;20044;-62
2023/06/12 05:14:54;;;;;;;8.60;4.85;;;21.20;84.30;;;;;;4174301;28;20349;-61
2023/06/12 05:16:55;;;;;;;7.20;4.78;;;21.10;84.20;;;;;;4173829;28;20033;-61
2023/06/12 05:18:56;;;;;;;7.90;5.07;;;21.00;85.90;;;;;;4176382;28;20035;-61
2023/06/12 05:20:59;;;;;;;9.13;5.10;;;20.90;85.90;;;;;;4175810;28;20061;-62
2023/06/12 05:22:59;;;;;;;7.95;4.78;;;20.90;86.80;;;;;;4168577;28;20075;-61
2023/06/12 05:25:00;;;;;;;6.18;4.38;;;20.90;87.00;;;;;;4163136;28;20033;-61
2023/06/12 05:27:01;;;;;;;9.77;5.25;;;20.90;87.50;;;;;;4174864;28;20450;-62
2023/06/12 05:29:02;;;;;;;6.72;4.50;;;20.90;89.20;;;;;;4181253;28;20033;-62
2023/06/12 05:31:04;;;;;;;9.48;4.80;;;21.00;88.00;;;;;;4173729;28;20037;-62
2023/06/12 05:33:05;;;;;;;10.00;4.90;;;21.00;87.70;;;;;;4176610;28;20025;-62
2023/06/12 05:35:06;;;;;;;8.18;4.93;;;21.00;86.60;;;;;;4176501;28;20045;-62
2023/06/12 05:37:06;;;;;;;8.63;5.18;;;21.10;86.90;;;;;;4172574;28;20033;-62
2023/06/12 05:39:07;;;;;;;8.05;4.47;;;21.10;86.40;;;;;;4165145;28;20033;-62
2023/06/12 05:41:08;;;;;;;8.43;5.10;;;21.20;87.30;;;;;;4176861;28;20041;-62
2023/06/12 05:43:08;;;;;;;8.60;4.93;;;21.30;86.80;;;;;;4173429;28;20669;-64
2023/06/12 05:45:09;;;;;;;9.05;5.07;;;21.40;87.10;;;;;;4176018;28;20045;-62
2023/06/12 05:47:10;;;;;;;6.95;4.85;;;21.50;84.80;;;;;;4172580;28;20060;-63
2023/06/12 05:49:11;;;;;;;9.05;4.97;;;21.80;84.90;;;;;;4182171;28;20163;-62
2023/06/12 05:51:12;;;;;;;9.60;5.10;;;22.10;84.60;;;;;;4175672;28;20476;-63
2023/06/12 05:53:12;;;;;;;7.95;5.00;;;22.60;84.80;;;;;;4176580;28;20057;-63
2023/06/12 05:55:13;;;;;;;8.68;5.35;;;23.00;85.10;;;;;;4172687;28;20474;-63
2023/06/12 05:57:14;;;;;;;9.23;5.38;;;23.50;81.80;;;;;;4168114;28;20492;-63
2023/06/12 05:59:14;;;;;;;10.02;4.53;;;23.90;82.40;;;;;;4177496;28;20532;-63
2023/06/12 06:01:21;;;;;;;9.02;5.00;;;24.40;80.20;;;;;;4168954;28;20132;-63
2023/06/12 06:03:24;;;;;;;7.35;4.40;;;24.90;81.00;;;;;;4177121;28;20049;-62
2023/06/12 06:05:25;;;;;;;9.18;5.18;;;25.40;77.50;;;;;;4176430;28;20483;-63
2023/06/12 06:07:26;;;;;;;6.40;4.80;;;25.90;77.00;;;;;;4183040;28;20090;-63
2023/06/12 06:09:28;;;;;;;6.10;4.82;;;26.40;75.00;;;;;;4192671;28;20032;-63
2023/06/12 06:11:28;;;;;;;8.60;4.68;;;26.80;73.60;;;;;;4175919;28;20472;-63
2023/06/12 06:13:29;;;;;;;7.13;4.93;;;27.20;72.50;;;;;;4177124;28;20037;-63
2023/06/12 06:15:29;;;;;;;10.15;5.13;;;27.50;71.70;;;;;;4168509;28;20037;-63
2023/06/12 06:17:30;;;;;;;7.50;4.68;;;27.70;66.40;;;;;;4171016;28;20029;-63
2023/06/12 06:19:31;;;;;;;7.80;4.20;;;27.90;66.90;;;;;;4168752;28;20038;-63
2023/06/12 06:21:31;;;;;;;6.30;3.50;;;28.10;63.90;;;;;;4171063;28;20037;-63
2023/06/12 06:23:33;;;;;;;5.93;4.25;;;28.20;63.30;;;;;;4163866;28;20041;-63
2023/06/12 06:25:35;;;;;;;8.63;4.03;;;28.20;62.90;;;;;;4165864;28;20041;-63
2023/06/12 06:27:35;;;;;;;7.40;4.00;;;28.50;62.60;;;;;;4166347;28;20041;-65
2023/06/12 06:29:36;;;;;;;5.47;3.72;;;28.60;61.60;;;;;;4162315;28;20049;-64
2023/06/12 06:31:37;;;;;;;6.60;4.15;;;28.80;61.40;;;;;;4161501;28;20041;-64
2023/06/12 06:33:37;;;;;;;8.43;4.30;;;28.80;61.10;;;;;;4165785;28;20103;-64
2023/06/12 06:35:38;;;;;;;12.00;4.45;;;28.80;60.70;;;;;;4161856;28;20044;-64
2023/06/12 06:37:39;;;;;;;5.03;4.03;;;28.80;61.20;;;;;;4163742;28;20044;-64
2023/06/12 06:39:40;;;;;;;7.88;4.20;;;28.70;60.40;;;;;;4160277;28;20496;-63
2023/06/12 06:41:41;;;;;;;6.78;3.80;;;28.50;60.50;;;;;;4164732;28;20071;-64
2023/06/12 06:43:41;;;;;;;5.32;3.80;;;28.70;61.40;;;;;;4166423;28;20045;-64
2023/06/12 06:45:42;;;;;;;6.07;3.70;;;28.80;60.90;;;;;;4163874;28;20029;-64
2023/06/12 06:47:42;;;;;;;5.35;3.70;;;28.70;59.70;;;;;;4165954;28;20447;-64
2023/06/12 06:49:43;;;;;;;7.20;4.35;;;28.70;59.40;;;;;;4166042;28;20040;-64
2023/06/12 06:51:44;;;;;;;9.50;4.20;;;28.60;59.60;;;;;;4160772;28;20465;-65
2023/06/12 06:53:44;;;;;;;6.43;3.88;;;28.40;59.50;;;;;;4166037;28;20029;-64
2023/06/12 06:55:45;;;;;;;5.70;4.18;;;28.30;59.80;;;;;;4166854;28;20480;-64
2023/06/12 06:57:46;;;;;;;9.95;4.10;;;28.40;61.20;;;;;;4168002;28;20037;-65
2023/06/12 06:59:46;;;;;;;5.60;3.22;;;28.40;60.50;;;;;;4166354;28;20048;-64
2023/06/12 07:01:47;;;;;;;4.60;3.63;;;28.30;60.90;;;;;;4164430;28;20037;-64
2023/06/12 07:03:48;;;;;;;6.57;3.72;;;28.20;61.40;;;;;;4163980;28;20037;-63
2023/06/12 07:05:49;;;;;;;4.53;3.60;;;28.20;61.20;;;;;;4166993;28;20313;-65
2023/06/12 07:07:50;;;;;;;5.35;3.75;;;28.30;62.20;;;;;;4166555;28;20082;-64
2023/06/12 07:09:50;;;;;;;4.78;3.78;;;28.40;61.10;;;;;;4165193;28;20467;-64
2023/06/12 07:11:52;;;;;;;5.95;3.53;;;28.50;62.10;;;;;;4166765;28;20029;-64
2023/06/12 07:13:52;;;;;;;6.50;3.30;;;28.30;60.80;;;;;;4166259;28;20495;-64
2023/06/12 07:15:53;;;;;;;5.43;3.60;;;28.30;59.20;;;;;;4165808;28;20033;-64
2023/06/12 07:17:54;;;;;;;5.72;3.83;;;28.30;60.10;;;;;;4167463;28;20068;-64
2023/06/12 07:19:54;;;;;;;5.78;3.53;;;28.20;59.50;;;;;;4168262;28;20034;-64
2023/06/12 07:21:55;;;;;;;8.63;3.85;;;28.20;60.00;;;;;;4165903;28;21118;-64
2023/06/12 07:23:56;;;;;;;4.30;3.33;;;28.20;60.20;;;;;;4165126;28;20518;-64
2023/06/12 07:25:56;;;;;;;4.20;3.10;;;27.90;60.40;;;;;;4159474;28;20038;-64
2023/06/12 07:27:57;;;;;;;4.72;3.17;;;28.00;60.90;;;;;;4168028;28;20124;-64
2023/06/12 07:29:57;;;;;;;4.28;3.50;;;28.10;61.90;;;;;;4167010;28;20424;-64
2023/06/12 07:31:58;;;;;;;4.97;3.58;;;28.10;59.80;;;;;;4163880;28;20037;-64
2023/06/12 07:33:59;;;;;;;4.47;3.70;;;28.00;60.10;;;;;;4166066;28;20040;-64
2023/06/12 07:35:59;;;;;;;4.95;3.75;;;28.00;59.80;;;;;;4160568;28;20518;-64
2023/06/12 07:38:00;;;;;;;4.53;3.42;;;28.00;60.10;;;;;;4171364;28;20087;-64
2023/06/12 07:40:03;;;;;;;4.82;3.45;;;28.00;60.60;;;;;;4171035;28;20060;-64
2023/06/12 07:42:06;;;;;;;4.13;3.60;;;28.00;61.10;;;;;;4163958;28;20899;-64
2023/06/12 07:44:06;;;;;;;;;;;28.00;60.40;;;;;;4168727;28;20128;-64
2023/06/12 07:46:07;;;;;;;5.13;3.17;;;28.10;60.60;;;;;;4165217;28;19970;-64
2023/06/12 07:48:08;;;;;;;4.97;3.40;;;28.10;60.50;;;;;;4161160;28;20033;-64
2023/06/12 07:50:08;;;;;;;5.18;3.55;;;28.20;61.70;;;;;;4169810;28;20044;-64
2023/06/12 07:52:10;;;;;;;4.72;3.88;;;28.10;60.70;;;;;;4164663;28;20359;-64
2023/06/12 07:54:12;;;;;;;5.90;4.03;;;28.20;61.00;;;;;;4168138;28;20041;-64
2023/06/12 07:56:16;;;;;;;4.50;3.25;;;28.20;60.30;;;;;;4160329;28;20029;-64
2023/06/12 07:58:17;;;;;;;5.00;3.60;;;28.30;60.50;;;;;;4161760;28;20040;-65
2023/06/12 08:00:20;;;;;;;6.05;3.60;;;28.40;60.50;;;;;;4160112;28;20064;-64
2023/06/12 08:02:22;;;;;;;5.80;3.88;;;28.30;60.50;;;;;;4165020;28;20382;-64
2023/06/12 08:04:22;;;;;;;4.88;3.28;;;28.30;59.70;;;;;;4160964;28;20041;-64
2023/06/12 08:06:24;;;;;;;5.10;3.78;;;28.30;59.90;;;;;;4162708;28;20365;-63
2023/06/12 08:08:25;;;;;;;3.97;3.47;;;28.40;61.40;;;;;;4167638;28;20045;-64
2023/06/12 08:10:25;;;;;;;4.13;3.58;;;28.40;60.10;;;;;;4166246;28;23148;-64
2023/06/12 08:12:26;;;;;;;6.80;3.95;;;28.40;60.00;;;;;;4164909;28;20041;-64
2023/06/12 08:14:27;;;;;;;4.53;3.95;;;28.30;59.90;;;;;;4170942;28;20040;-64
2023/06/12 08:16:27;;;;;;;3.55;3.22;;;28.20;60.60;;;;;;4163210;28;20041;-64
2023/06/12 08:18:28;;;;;;;7.40;3.85;;;28.20;60.10;;;;;;4164478;28;20033;-64
2023/06/12 08:20:32;;;;;;;4.72;3.50;;;28.20;60.20;;;;;;4163003;28;20040;-64
2023/06/12 08:22:32;;;;;;;5.03;4.13;;;28.30;60.20;;;;;;4164744;28;20068;-63
2023/06/12 08:24:36;;;;;;;4.90;3.40;;;28.30;62.10;;;;;;4170074;28;20397;-64
2023/06/12 08:26:37;;;;;;;6.28;3.92;;;28.40;61.90;;;;;;4163744;28;20468;-64
2023/06/12 08:28:38;;;;;;;6.00;3.80;;;28.20;60.40;;;;;;4161865;28;20043;-66
2023/06/12 08:30:38;;;;;;;5.53;3.83;;;28.40;60.60;;;;;;4165401;28;20045;-64
2023/06/12 08:32:39;;;;;;;7.35;3.55;;;28.50;60.90;;;;;;4166365;28;20052;-64
2023/06/12 08:34:39;;;;;;;6.03;3.80;;;28.40;59.90;;;;;;4165187;28;20037;-64
2023/06/12 08:36:40;;;;;;;4.65;3.60;;;28.30;60.20;;;;;;4167352;28;20044;-64
2023/06/12 08:38:40;;;;;;;4.40;3.97;;;28.30;59.70;;;;;;4164639;28;20066;-63
2023/06/12 08:40:42;;;;;;;7.65;3.67;;;28.30;60.10;;;;;;4160159;28;20049;-63
2023/06/12 08:42:50;;;;;;;5.78;4.40;;;28.40;60.50;;;;;;4163999;28;20053;-64
2023/06/12 08:44:59;;;;;;;4.13;3.47;;;28.30;61.80;;;;;;4162476;28;20095;-64
2023/06/12 08:47:04;;;;;;;4.57;3.45;;;28.30;63.50;;;;;;4160444;28;20037;-63
2023/06/12 08:49:05;;;;;;;4.93;3.53;;;28.40;62.00;;;;;;4167770;28;20115;-64
2023/06/12 08:51:06;;;;;;;5.70;3.30;;;28.60;61.60;;;;;;4159746;28;20048;-63
2023/06/12 08:53:07;;;;;;;7.55;3.78;;;28.60;61.40;;;;;;4161321;28;20045;-66
2023/06/12 08:55:09;;;;;;;6.38;3.70;;;28.70;61.90;;;;;;4167521;28;20081;-64
2023/06/12 08:57:10;;;;;;;5.78;3.85;;;28.80;61.60;;;;;;4163842;28;20467;-64
2023/06/12 08:59:11;;;;;;;6.27;4.10;;;28.80;63.40;;;;;;4165880;28;20498;-64
2023/06/12 09:01:12;;;;;;;5.55;4.30;;;28.90;61.50;;;;;;4159754;28;20061;-63
2023/06/12 09:03:14;;;;;;;7.68;4.85;;;28.80;61.30;;;;;;4163162;28;20049;-64
2023/06/12 09:05:17;;;;;;;7.78;4.40;;;28.80;60.40;;;;;;4165349;28;20424;-63
2023/06/12 09:07:19;;;;;;;5.10;3.53;;;28.70;60.50;;;;;;4168155;28;20034;-64
2023/06/12 09:09:20;;;;;;;6.78;4.10;;;28.80;60.60;;;;;;4170259;28;20171;-63
2023/06/12 09:11:20;;;;;;;5.72;4.10;;;28.90;60.40;;;;;;4166077;28;20084;-64
2023/06/12 09:13:21;;;;;;;7.10;3.92;;;28.90;61.10;;;;;;4166343;28;20025;-65
2023/06/12 09:15:22;;;;;;;6.43;4.28;;;29.00;60.10;;;;;;4172361;28;20087;-64
2023/06/12 09:17:29;;;;;;;6.53;3.47;;;29.10;61.60;;;;;;4167443;28;20080;-64
2023/06/12 09:19:44;;;;;;;11.00;3.78;;;29.20;60.30;;;;;;4171385;28;20098;-64
2023/06/12 09:21:47;;;;;;;5.07;3.83;;;29.00;60.20;;;;;;4165139;28;20036;-63
2023/06/12 09:23:50;;;;;;;7.25;4.13;;;29.10;60.80;;;;;;4164506;28;20447;-64
2023/06/12 09:25:54;;;;;;;6.60;4.50;;;29.10;59.80;;;;;;4164737;28;20065;-65
2023/06/12 09:27:54;;;;;;;5.80;4.22;;;29.20;59.70;;;;;;4165616;28;20040;-64
2023/06/12 09:29:59;;;;;;;8.15;3.90;;;29.20;59.00;;;;;;4166742;28;20095;-64
2023/06/12 09:32:06;;;;;;;5.47;3.70;;;29.30;60.00;;;;;;4165586;28;21224;-64
2023/06/12 09:34:07;;;;;;;5.80;3.78;;;29.30;60.00;;;;;;4168824;28;20065;-64
2023/06/12 09:36:11;;;;;;;5.15;3.95;;;29.40;60.30;;;;;;4172406;28;20168;-65
2023/06/12 09:38:12;;;;;;;5.47;3.80;;;29.40;59.20;;;;;;4172668;28;20540;-64
2023/06/12 09:40:14;;;;;;;6.00;3.70;;;29.40;59.00;;;;;;4166880;28;20072;-64
2023/06/12 09:42:17;;;;;;;;;;;29.40;59.50;;;;;;4172864;28;20094;-64
2023/06/12 09:44:23;;;;;;;6.25;3.65;;;29.50;59.80;;;;;;4169780;28;20003;-64
2023/06/12 09:46:26;;;;;;;4.47;3.60;;;29.60;59.10;;;;;;4165124;28;20063;-64
2023/06/12 09:48:40;;;;;;;4.90;3.90;;;29.60;59.30;;;;;;4164224;28;20395;-64
2023/06/12 09:50:41;;;;;;;4.72;3.47;;;29.60;59.40;;;;;;4162608;28;20206;-64
2023/06/12 09:52:43;;;;;;;4.57;3.20;;;29.70;59.50;;;;;;4165635;28;20125;-64
2023/06/12 09:54:45;;;;;;;4.95;3.97;;;29.70;60.00;;;;;;4164228;28;20037;-64
2023/06/12 09:56:47;;;;;;;5.93;4.33;;;29.70;59.30;;;;;;4169896;28;20464;-64
2023/06/12 09:58:49;;;;;;;6.95;4.00;;;29.70;58.10;;;;;;4166886;28;20048;-64
2023/06/12 10:00:55;;;;;;;5.68;4.00;;;29.70;59.10;;;;;;4167713;28;20033;-64
2023/06/12 10:03:00;;;;;;;5.28;4.00;;;29.80;59.20;;;;;;4168158;28;20064;-64
2023/06/12 10:05:10;;;;;;;7.03;4.20;;;29.70;59.50;;;;;;4167618;28;20053;-64
2023/06/12 10:07:26;;;;;;;4.82;3.88;;;29.60;59.60;;;;;;4166183;28;20047;-64
2023/06/12 10:09:28;;;;;;;5.22;4.00;;;29.70;59.70;;;;;;4166413;28;20053;-64
2023/06/12 10:11:30;;;;;;;4.57;3.85;;;29.70;59.20;;;;;;4168254;28;21627;-64
2023/06/12 10:13:31;;;;;;;5.13;3.58;;;29.70;59.60;;;;;;4166307;28;20045;-64
2023/06/12 10:15:32;;;;;;;5.93;3.80;;;29.80;59.30;;;;;;4165020;28;20033;-64
2023/06/12 10:17:34;;;;;;;11.18;4.15;;;29.70;59.50;;;;;;4164602;28;20455;-64
2023/06/12 10:19:37;;;;;;;4.50;3.67;;;29.70;58.40;;;;;;4168875;28;20468;-64
2023/06/12 10:21:40;;;;;;;4.13;3.50;;;29.80;58.10;;;;;;4165569;28;20051;-64
2023/06/12 10:23:41;;;;;;;4.20;3.65;;;29.80;57.60;;;;;;4162304;28;20482;-64
2023/06/12 10:25:42;;;;;;;5.17;3.70;;;29.90;57.80;;;;;;4164286;28;20049;-64
2023/06/12 10:27:43;;;;;;;5.22;3.95;;;29.80;58.50;;;;;;4165680;28;20040;-64
2023/06/12 10:29:53;;;;;;;6.45;4.63;;;29.80;58.70;;;;;;4168442;28;20168;-64
2023/06/12 10:32:01;;;;;;;5.07;3.83;;;29.80;58.70;;;;;;4162982;28;20033;-64
2023/06/12 10:34:10;;;;;;;4.30;3.70;;;29.90;59.60;;;;;;4163411;28;20385;-64
2023/06/12 10:36:12;;;;;;;6.70;3.63;;;30.00;58.70;;;;;;4164605;28;20060;-65